sensor_id;sensor_type;location;lat;lon;timestamp;pressure;altitude;pressure_sealevel;temperature;humidity
3844;BME280;1937;51.444;6.484;2023-03-13T00:01:21;68075.25;;;10.79;89.69
3844;BME280;1937;51.444;6.484;2023-03-13T00:03:52;68107.47;;;10.84;89.17
3844;BME280;1937;51.444;6.484;2023-03-13T00:06:21;68058.97;;;10.69;90.11
3844;BME280;1937;51.444;6.484;2023-03-13T00:08:51;68081.06;;;10.61;90.14
3844;BME280;1937;51.444;6.484;2023-03-13T00:11:21;68058.34;;;10.57;90.69
3844;BME280;1937;51.444;6.484;2023-03-13T00:13:52;68107.28;;;10.68;90.87
3844;BME280;1937;51.444;6.484;2023-03-13T00:16:21;68130.38;;;10.75;90.70
3844;BME280;1937;51.444;6.484;2023-03-13T00:18:53;68199.78;;;10.71;90.48
3844;BME280;1937;51.444;6.484;2023-03-13T00:21:23;68084.91;;;10.56;91.67
3844;BME280;1937;51.444;6.484;2023-03-13T00:23:52;68080.03;;;10.65;91.75
3844;BME280;1937;51.444;6.484;2023-03-13T00:26:25;68212.88;;;10.68;91.19
3844;BME280;1937;51.444;6.484;2023-03-13T00:28:55;68143.94;;;10.69;91.09
3844;BME280;1937;51.444;6.484;2023-03-13T00:31:26;68158.88;;;10.62;91.52
3844;BME280;1937;51.444;6.484;2023-03-13T00:33:59;68173.47;;;10.81;90.94
3844;BME280;1937;51.444;6.484;2023-03-13T00:36:30;68222.28;;;10.59;91.62
3844;BME280;1937;51.444;6.484;2023-03-13T00:39:00;68164.22;;;10.78;92.67
3844;BME280;1937;51.444;6.484;2023-03-13T00:41:31;68142.56;;;10.52;94.30
3844;BME280;1937;51.444;6.484;2023-03-13T00:44:00;68141.03;;;10.49;95.79
3844;BME280;1937;51.444;6.484;2023-03-13T00:46:30;68287.84;;;10.42;96.85
3844;BME280;1937;51.444;6.484;2023-03-13T00:49:00;68210.91;;;10.51;96.68
3844;BME280;1937;51.444;6.484;2023-03-13T00:51:29;68160.22;;;10.50;97.65
3844;BME280;1937;51.444;6.484;2023-03-13T00:53:58;68206.34;;;10.52;97.10
3844;BME280;1937;51.444;6.484;2023-03-13T00:56:28;68152.75;;;10.48;97.71
3844;BME280;1937;51.444;6.484;2023-03-13T00:58:58;68287.59;;;10.44;98.45
3844;BME280;1937;51.444;6.484;2023-03-13T01:01:28;68230.09;;;10.52;99.26
3844;BME280;1937;51.444;6.484;2023-03-13T01:03:58;68254.28;;;10.49;100.00
3844;BME280;1937;51.444;6.484;2023-03-13T01:06:31;68288.34;;;10.49;100.00
3844;BME280;1937;51.444;6.484;2023-03-13T01:09:00;68317.47;;;10.48;100.00
3844;BME280;1937;51.444;6.484;2023-03-13T01:11:30;68377.16;;;10.37;100.00
3844;BME280;1937;51.444;6.484;2023-03-13T01:14:00;68324.00;;;10.05;100.00
3844;BME280;1937;51.444;6.484;2023-03-13T01:16:32;68373.03;;;10.09;100.00
3844;BME280;1937;51.444;6.484;2023-03-13T01:19:03;68524.00;;;10.17;100.00
3844;BME280;1937;51.444;6.484;2023-03-13T01:21:33;68525.56;;;10.14;100.00
3844;BME280;1937;51.444;6.484;2023-03-13T01:24:02;68508.13;;;10.21;100.00
3844;BME280;1937;51.444;6.484;2023-03-13T01:26:33;68597.41;;;10.23;100.00
3844;BME280;1937;51.444;6.484;2023-03-13T01:29:01;68592.34;;;9.97;100.00
3844;BME280;1937;51.444;6.484;2023-03-13T01:31:31;68732.84;;;9.87;100.00
3844;BME280;1937;51.444;6.484;2023-03-13T01:34:02;68824.44;;;9.91;100.00
3844;BME280;1937;51.444;6.484;2023-03-13T01:36:31;68909.91;;;9.98;100.00
3844;BME280;1937;51.444;6.484;2023-03-13T01:39:02;69143.84;;;10.06;100.00
3844;BME280;1937;51.444;6.484;2023-03-13T01:41:32;69105.84;;;10.00;100.00
3844;BME280;1937;51.444;6.484;2023-03-13T01:44:00;69149.09;;;9.84;100.00
3844;BME280;1937;51.444;6.484;2023-03-13T01:46:29;69229.97;;;9.79;100.00
3844;BME280;1937;51.444;6.484;2023-03-13T01:49:01;69361.44;;;9.90;100.00
3844;BME280;1937;51.444;6.484;2023-03-13T01:51:34;69526.59;;;9.84;100.00
3844;BME280;1937;51.444;6.484;2023-03-13T01:54:10;69512.94;;;10.01;100.00
3844;BME280;1937;51.444;6.484;2023-03-13T01:56:42;69555.88;;;10.02;100.00
3844;BME280;1937;51.444;6.484;2023-03-13T01:59:15;69667.72;;;10.03;100.00
3844;BME280;1937;51.444;6.484;2023-03-13T02:01:46;69673.06;;;10.01;100.00
3844;BME280;1937;51.444;6.484;2023-03-13T02:04:17;69764.31;;;10.02;100.00
3844;BME280;1937;51.444;6.484;2023-03-13T02:06:50;69882.53;;;10.04;100.00
3844;BME280;1937;51.444;6.484;2023-03-13T02:09:26;70023.66;;;9.93;100.00
3844;BME280;1937;51.444;6.484;2023-03-13T02:11:58;70121.56;;;10.00;100.00
3844;BME280;1937;51.444;6.484;2023-03-13T02:14:32;70345.91;;;10.02;100.00
3844;BME280;1937;51.444;6.484;2023-03-13T02:17:02;70292.31;;;9.96;100.00
3844;BME280;1937;51.444;6.484;2023-03-13T02:19:34;70366.94;;;10.13;100.00
3844;BME280;1937;51.444;6.484;2023-03-13T02:22:10;70403.94;;;10.18;100.00
3844;BME280;1937;51.444;6.484;2023-03-13T02:24:52;70501.91;;;10.16;100.00
3844;BME280;1937;51.444;6.484;2023-03-13T02:27:26;70616.81;;;10.11;100.00
3844;BME280;1937;51.444;6.484;2023-03-13T02:29:54;70683.78;;;10.20;100.00
3844;BME280;1937;51.444;6.484;2023-03-13T02:32:23;70828.47;;;10.42;100.00
3844;BME280;1937;51.444;6.484;2023-03-13T02:34:55;70772.75;;;10.27;100.00
3844;BME280;1937;51.444;6.484;2023-03-13T02:37:26;70984.47;;;10.39;100.00
3844;BME280;1937;51.444;6.484;2023-03-13T02:39:59;71070.09;;;10.39;100.00
3844;BME280;1937;51.444;6.484;2023-03-13T02:42:30;71015.47;;;10.17;100.00
3844;BME280;1937;51.444;6.484;2023-03-13T02:44:59;71194.47;;;10.38;100.00
3844;BME280;1937;51.444;6.484;2023-03-13T02:47:28;71302.53;;;10.50;100.00
3844;BME280;1937;51.444;6.484;2023-03-13T02:49:56;71323.28;;;10.70;100.00
3844;BME280;1937;51.444;6.484;2023-03-13T02:52:28;71341.06;;;10.63;100.00
3844;BME280;1937;51.444;6.484;2023-03-13T02:55:01;71360.22;;;10.77;100.00
3844;BME280;1937;51.444;6.484;2023-03-13T02:57:33;71368.44;;;10.79;100.00
3844;BME280;1937;51.444;6.484;2023-03-13T03:00:03;71342.41;;;10.73;100.00
3844;BME280;1937;51.444;6.484;2023-03-13T03:02:32;71406.22;;;10.72;100.00
3844;BME280;1937;51.444;6.484;2023-03-13T03:05:02;71427.81;;;10.66;100.00
3844;BME280;1937;51.444;6.484;2023-03-13T03:07:31;71530.88;;;10.56;100.00
3844;BME280;1937;51.444;6.484;2023-03-13T03:09:59;71499.53;;;10.75;100.00
3844;BME280;1937;51.444;6.484;2023-03-13T03:12:27;71486.53;;;10.77;100.00
3844;BME280;1937;51.444;6.484;2023-03-13T03:14:57;71464.38;;;10.58;100.00
3844;BME280;1937;51.444;6.484;2023-03-13T03:17:25;71686.34;;;10.76;100.00
3844;BME280;1937;51.444;6.484;2023-03-13T03:19:54;71550.81;;;10.68;100.00
3844;BME280;1937;51.444;6.484;2023-03-13T03:22:22;71602.63;;;10.75;100.00
3844;BME280;1937;51.444;6.484;2023-03-13T03:24:50;71807.59;;;10.74;100.00
3844;BME280;1937;51.444;6.484;2023-03-13T03:27:19;71738.81;;;10.83;100.00
3844;BME280;1937;51.444;6.484;2023-03-13T03:29:47;71978.59;;;10.95;100.00
3844;BME280;1937;51.444;6.484;2023-03-13T03:32:17;71770.44;;;10.94;100.00
3844;BME280;1937;51.444;6.484;2023-03-13T03:34:47;71794.28;;;10.94;100.00
3844;BME280;1937;51.444;6.484;2023-03-13T03:37:15;71862.97;;;10.87;100.00
3844;BME280;1937;51.444;6.484;2023-03-13T03:39:43;71834.38;;;10.91;100.00
3844;BME280;1937;51.444;6.484;2023-03-13T03:42:12;71787.88;;;10.93;100.00
3844;BME280;1937;51.444;6.484;2023-03-13T03:44:40;71834.31;;;10.81;100.00
3844;BME280;1937;51.444;6.484;2023-03-13T03:47:08;71994.97;;;10.90;100.00
3844;BME280;1937;51.444;6.484;2023-03-13T03:49:39;71909.16;;;10.91;100.00
3844;BME280;1937;51.444;6.484;2023-03-13T03:52:08;71952.19;;;10.95;100.00
3844;BME280;1937;51.444;6.484;2023-03-13T03:54:36;71973.84;;;11.00;100.00
3844;BME280;1937;51.444;6.484;2023-03-13T03:57:05;72121.84;;;10.92;100.00
3844;BME280;1937;51.444;6.484;2023-03-13T03:59:34;72131.53;;;10.92;100.00
3844;BME280;1937;51.444;6.484;2023-03-13T04:02:02;72241.00;;;10.95;100.00
3844;BME280;1937;51.444;6.484;2023-03-13T04:04:30;72268.06;;;11.23;100.00
3844;BME280;1937;51.444;6.484;2023-03-13T04:07:00;72222.00;;;11.15;100.00
3844;BME280;1937;51.444;6.484;2023-03-13T04:09:30;72257.47;;;11.29;100.00
3844;BME280;1937;51.444;6.484;2023-03-13T04:11:58;72164.38;;;11.33;100.00
3844;BME280;1937;51.444;6.484;2023-03-13T04:14:26;72202.66;;;11.29;100.00
3844;BME280;1937;51.444;6.484;2023-03-13T04:16:55;72118.22;;;11.27;100.00
3844;BME280;1937;51.444;6.484;2023-03-13T04:19:23;72028.00;;;11.38;100.00
3844;BME280;1937;51.444;6.484;2023-03-13T04:21:51;71915.72;;;11.39;100.00
3844;BME280;1937;51.444;6.484;2023-03-13T04:24:22;71900.56;;;11.33;100.00
3844;BME280;1937;51.444;6.484;2023-03-13T04:26:50;71950.41;;;11.42;100.00
3844;BME280;1937;51.444;6.484;2023-03-13T04:29:18;71971.16;;;11.40;100.00
3844;BME280;1937;51.444;6.484;2023-03-13T04:31:47;71843.47;;;11.39;100.00
3844;BME280;1937;51.444;6.484;2023-03-13T04:34:15;71982.59;;;11.43;100.00
3844;BME280;1937;51.444;6.484;2023-03-13T04:36:45;71959.66;;;11.62;100.00
3844;BME280;1937;51.444;6.484;2023-03-13T04:39:13;72011.91;;;11.50;100.00
3844;BME280;1937;51.444;6.484;2023-03-13T04:41:43;71887.06;;;11.56;100.00
3844;BME280;1937;51.444;6.484;2023-03-13T04:44:12;71883.88;;;11.55;100.00
3844;BME280;1937;51.444;6.484;2023-03-13T04:46:40;71963.56;;;11.61;100.00
3844;BME280;1937;51.444;6.484;2023-03-13T04:49:08;71959.25;;;11.58;100.00
3844;BME280;1937;51.444;6.484;2023-03-13T04:51:37;71962.34;;;11.60;100.00
3844;BME280;1937;51.444;6.484;2023-03-13T04:54:05;72081.09;;;11.60;100.00
3844;BME280;1937;51.444;6.484;2023-03-13T04:56:35;72007.16;;;11.80;100.00
3844;BME280;1937;51.444;6.484;2023-03-13T04:59:04;72063.34;;;11.79;100.00
3844;BME280;1937;51.444;6.484;2023-03-13T05:01:33;71967.47;;;11.73;100.00
3844;BME280;1937;51.444;6.484;2023-03-13T05:04:02;72157.75;;;11.76;100.00
3844;BME280;1937;51.444;6.484;2023-03-13T05:06:30;72065.19;;;11.68;100.00
3844;BME280;1937;51.444;6.484;2023-03-13T05:08:59;72139.06;;;11.88;100.00
3844;BME280;1937;51.444;6.484;2023-03-13T05:11:28;71994.44;;;11.88;100.00
3844;BME280;1937;51.444;6.484;2023-03-13T05:13:57;71964.16;;;12.00;100.00
3844;BME280;1937;51.444;6.484;2023-03-13T05:16:27;71990.41;;;11.92;100.00
3844;BME280;1937;51.444;6.484;2023-03-13T05:18:55;71822.75;;;12.11;100.00
3844;BME280;1937;51.444;6.484;2023-03-13T05:21:23;71853.34;;;12.06;100.00
3844;BME280;1937;51.444;6.484;2023-03-13T05:23:53;71657.16;;;12.15;100.00
3844;BME280;1937;51.444;6.484;2023-03-13T05:26:21;71485.94;;;11.95;100.00
3844;BME280;1937;51.444;6.484;2023-03-13T05:28:49;71527.50;;;12.12;100.00
3844;BME280;1937;51.444;6.484;2023-03-13T05:31:18;71413.97;;;12.10;100.00
3844;BME280;1937;51.444;6.484;2023-03-13T05:33:48;71399.03;;;12.32;100.00
3844;BME280;1937;51.444;6.484;2023-03-13T05:36:18;71194.44;;;12.29;100.00
3844;BME280;1937;51.444;6.484;2023-03-13T05:38:46;71031.38;;;12.06;100.00
3844;BME280;1937;51.444;6.484;2023-03-13T05:41:14;71222.75;;;12.21;100.00
3844;BME280;1937;51.444;6.484;2023-03-13T05:43:43;71091.81;;;12.28;100.00
3844;BME280;1937;51.444;6.484;2023-03-13T05:46:11;71138.94;;;12.48;100.00
3844;BME280;1937;51.444;6.484;2023-03-13T05:48:40;71056.91;;;12.38;100.00
3844;BME280;1937;51.444;6.484;2023-03-13T05:51:10;71041.59;;;12.44;100.00
3844;BME280;1937;51.444;6.484;2023-03-13T05:53:38;71080.53;;;12.42;100.00
3844;BME280;1937;51.444;6.484;2023-03-13T05:56:08;70843.38;;;12.43;100.00
3844;BME280;1937;51.444;6.484;2023-03-13T05:58:37;70913.03;;;12.53;100.00
3844;BME280;1937;51.444;6.484;2023-03-13T06:01:10;70929.41;;;12.41;100.00
3844;BME280;1937;51.444;6.484;2023-03-13T06:03:42;70831.25;;;12.58;100.00
3844;BME280;1937;51.444;6.484;2023-03-13T06:06:32;70773.16;;;12.57;100.00
3844;BME280;1937;51.444;6.484;2023-03-13T06:09:05;70743.06;;;12.62;100.00
3844;BME280;1937;51.444;6.484;2023-03-13T06:11:36;70699.28;;;12.60;100.00
3844;BME280;1937;51.444;6.484;2023-03-13T06:14:05;70620.22;;;12.63;100.00
3844;BME280;1937;51.444;6.484;2023-03-13T06:16:35;70653.03;;;12.73;100.00
3844;BME280;1937;51.444;6.484;2023-03-13T06:19:03;70723.91;;;12.68;100.00
3844;BME280;1937;51.444;6.484;2023-03-13T06:21:33;70485.94;;;12.70;100.00
3844;BME280;1937;51.444;6.484;2023-03-13T06:24:02;70473.13;;;12.77;100.00
3844;BME280;1937;51.444;6.484;2023-03-13T06:26:30;70422.53;;;12.71;100.00
3844;BME280;1937;51.444;6.484;2023-03-13T06:28:58;70471.44;;;12.82;100.00
3844;BME280;1937;51.444;6.484;2023-03-13T06:31:28;70370.22;;;12.70;100.00
3844;BME280;1937;51.444;6.484;2023-03-13T06:33:57;70542.44;;;12.83;100.00
3844;BME280;1937;51.444;6.484;2023-03-13T06:36:25;70351.25;;;12.89;100.00
3844;BME280;1937;51.444;6.484;2023-03-13T06:38:55;70332.97;;;12.91;100.00
3844;BME280;1937;51.444;6.484;2023-03-13T06:41:23;70247.47;;;12.78;100.00
3844;BME280;1937;51.444;6.484;2023-03-13T06:43:53;70163.50;;;12.92;100.00
3844;BME280;1937;51.444;6.484;2023-03-13T06:46:23;70176.38;;;13.01;100.00
3844;BME280;1937;51.444;6.484;2023-03-13T06:48:52;70150.88;;;13.12;100.00
3844;BME280;1937;51.444;6.484;2023-03-13T06:51:21;70102.41;;;13.04;100.00
3844;BME280;1937;51.444;6.484;2023-03-13T06:53:53;70094.88;;;13.08;100.00
3844;BME280;1937;51.444;6.484;2023-03-13T06:56:22;70067.47;;;13.11;99.89
3844;BME280;1937;51.444;6.484;2023-03-13T06:58:51;70041.38;;;13.07;99.94
3844;BME280;1937;51.444;6.484;2023-03-13T07:01:19;70009.38;;;13.10;99.36
3844;BME280;1937;51.444;6.484;2023-03-13T07:03:48;69951.19;;;13.03;99.41
3844;BME280;1937;51.444;6.484;2023-03-13T07:06:17;70012.72;;;13.24;98.98
3844;BME280;1937;51.444;6.484;2023-03-13T07:08:45;69889.19;;;13.09;98.82
3844;BME280;1937;51.444;6.484;2023-03-13T07:11:15;69894.50;;;13.23;98.74
3844;BME280;1937;51.444;6.484;2023-03-13T07:13:45;69938.34;;;13.31;98.29
3844;BME280;1937;51.444;6.484;2023-03-13T07:16:14;69857.72;;;13.29;97.97
3844;BME280;1937;51.444;6.484;2023-03-13T07:18:43;69851.53;;;13.26;96.95
3844;BME280;1937;51.444;6.484;2023-03-13T07:21:12;69786.31;;;13.32;96.63
3844;BME280;1937;51.444;6.484;2023-03-13T07:23:42;69799.88;;;13.39;96.56
3844;BME280;1937;51.444;6.484;2023-03-13T07:26:12;69715.50;;;13.35;96.14
3844;BME280;1937;51.444;6.484;2023-03-13T07:28:42;69734.16;;;13.29;96.01
3844;BME280;1937;51.444;6.484;2023-03-13T07:31:14;69684.25;;;13.37;95.93
3844;BME280;1937;51.444;6.484;2023-03-13T07:33:44;69614.59;;;13.35;95.69
3844;BME280;1937;51.444;6.484;2023-03-13T07:36:14;69687.88;;;13.47;94.94
3844;BME280;1937;51.444;6.484;2023-03-13T07:38:45;69655.59;;;13.39;94.67
3844;BME280;1937;51.444;6.484;2023-03-13T07:41:14;69616.41;;;13.43;94.51
3844;BME280;1937;51.444;6.484;2023-03-13T07:43:44;69591.53;;;13.46;94.37
3844;BME280;1937;51.444;6.484;2023-03-13T07:46:15;69530.81;;;13.39;93.94
3844;BME280;1937;51.444;6.484;2023-03-13T07:48:45;69537.81;;;13.47;93.28
3844;BME280;1937;51.444;6.484;2023-03-13T07:51:16;69528.44;;;13.50;93.77
3844;BME280;1937;51.444;6.484;2023-03-13T07:53:45;69504.16;;;13.53;92.85
3844;BME280;1937;51.444;6.484;2023-03-13T07:56:16;69515.91;;;13.59;92.64
3844;BME280;1937;51.444;6.484;2023-03-13T07:58:45;69497.00;;;13.54;92.64
3844;BME280;1937;51.444;6.484;2023-03-13T08:01:17;69461.75;;;13.50;91.69
3844;BME280;1937;51.444;6.484;2023-03-13T08:03:46;69430.31;;;13.61;91.63
3844;BME280;1937;51.444;6.484;2023-03-13T08:06:18;69419.75;;;13.63;91.59
3844;BME280;1937;51.444;6.484;2023-03-13T08:08:47;69434.06;;;13.82;90.98
3844;BME280;1937;51.444;6.484;2023-03-13T08:11:19;69445.41;;;13.85;90.52
3844;BME280;1937;51.444;6.484;2023-03-13T08:13:48;69408.59;;;13.78;90.50
3844;BME280;1937;51.444;6.484;2023-03-13T08:16:19;69390.25;;;13.80;90.42
3844;BME280;1937;51.444;6.484;2023-03-13T08:18:51;69399.81;;;13.81;90.09
3844;BME280;1937;51.444;6.484;2023-03-13T08:21:22;69379.72;;;13.82;90.53
3844;BME280;1937;51.444;6.484;2023-03-13T08:23:54;69373.13;;;13.89;89.85
3844;BME280;1937;51.444;6.484;2023-03-13T08:26:24;69396.81;;;13.92;90.03
3844;BME280;1937;51.444;6.484;2023-03-13T08:28:55;69422.50;;;14.01;89.42
3844;BME280;1937;51.444;6.484;2023-03-13T08:31:26;69345.81;;;13.97;89.57
3844;BME280;1937;51.444;6.484;2023-03-13T08:33:56;69388.00;;;14.09;88.92
3844;BME280;1937;51.444;6.484;2023-03-13T08:36:26;69424.28;;;13.96;90.03
3844;BME280;1937;51.444;6.484;2023-03-13T08:38:57;69423.69;;;13.95;89.22
3844;BME280;1937;51.444;6.484;2023-03-13T08:41:29;69428.47;;;13.99;89.18
3844;BME280;1937;51.444;6.484;2023-03-13T08:43:59;69359.50;;;14.09;89.09
3844;BME280;1937;51.444;6.484;2023-03-13T08:46:31;69367.91;;;13.96;88.52
3844;BME280;1937;51.444;6.484;2023-03-13T08:49:01;69355.91;;;14.19;88.77
3844;BME280;1937;51.444;6.484;2023-03-13T08:51:29;69307.63;;;14.28;88.28
3844;BME280;1937;51.444;6.484;2023-03-13T08:53:58;69489.91;;;14.71;86.88
3844;BME280;1937;51.444;6.484;2023-03-13T08:56:28;69546.06;;;14.92;86.24
3844;BME280;1937;51.444;6.484;2023-03-13T08:58:58;69471.53;;;14.73;86.12
3844;BME280;1937;51.444;6.484;2023-03-13T09:01:29;69434.41;;;14.81;86.68
3844;BME280;1937;51.444;6.484;2023-03-13T09:03:58;69497.47;;;14.73;86.19
3844;BME280;1937;51.444;6.484;2023-03-13T09:06:27;69411.91;;;14.73;86.82
3844;BME280;1937;51.444;6.484;2023-03-13T09:08:57;69406.25;;;14.90;86.34
3844;BME280;1937;51.444;6.484;2023-03-13T09:11:26;69431.28;;;15.11;85.21
3844;BME280;1937;51.444;6.484;2023-03-13T09:13:55;69548.53;;;15.38;84.97
3844;BME280;1937;51.444;6.484;2023-03-13T09:16:27;69523.53;;;15.54;83.72
3844;BME280;1937;51.444;6.484;2023-03-13T09:18:59;69556.25;;;15.58;83.62
3844;BME280;1937;51.444;6.484;2023-03-13T09:21:30;69545.66;;;15.67;82.21
3844;BME280;1937;51.444;6.484;2023-03-13T09:23:59;69569.84;;;15.59;81.82
3844;BME280;1937;51.444;6.484;2023-03-13T09:26:28;69464.00;;;15.59;82.13
3844;BME280;1937;51.444;6.484;2023-03-13T09:28:57;69496.56;;;15.51;81.89
3844;BME280;1937;51.444;6.484;2023-03-13T09:31:28;69432.25;;;15.59;82.77
3844;BME280;1937;51.444;6.484;2023-03-13T09:33:58;69398.00;;;15.38;82.98
3844;BME280;1937;51.444;6.484;2023-03-13T09:36:27;69376.13;;;15.24;85.39
3844;BME280;1937;51.444;6.484;2023-03-13T09:38:57;69406.88;;;15.22;86.68
3844;BME280;1937;51.444;6.484;2023-03-13T09:41:28;69368.56;;;15.22;86.38
3844;BME280;1937;51.444;6.484;2023-03-13T09:44:04;69470.59;;;15.58;84.61
3844;BME280;1937;51.444;6.484;2023-03-13T09:46:40;69544.97;;;15.79;83.51
3844;BME280;1937;51.444;6.484;2023-03-13T09:49:19;69491.00;;;15.86;83.17
3844;BME280;1937;51.444;6.484;2023-03-13T09:51:55;69543.03;;;16.04;82.34
3844;BME280;1937;51.444;6.484;2023-03-13T09:54:30;69449.50;;;15.73;82.11
3844;BME280;1937;51.444;6.484;2023-03-13T09:57:05;69510.50;;;15.98;81.56
3844;BME280;1937;51.444;6.484;2023-03-13T09:59:40;69586.25;;;15.94;82.18
3844;BME280;1937;51.444;6.484;2023-03-13T10:02:20;69377.75;;;15.83;82.15
3844;BME280;1937;51.444;6.484;2023-03-13T10:04:56;69323.38;;;15.63;81.36
3844;BME280;1937;51.444;6.484;2023-03-13T10:07:27;69301.25;;;15.57;81.44
3844;BME280;1937;51.444;6.484;2023-03-13T10:09:55;69383.91;;;15.86;81.25
3844;BME280;1937;51.444;6.484;2023-03-13T10:12:26;69362.94;;;15.57;81.56
3844;BME280;1937;51.444;6.484;2023-03-13T10:15:02;69368.16;;;15.81;81.36
3844;BME280;1937;51.444;6.484;2023-03-13T10:17:43;69371.41;;;16.00;79.32
3844;BME280;1937;51.444;6.484;2023-03-13T10:20:20;69455.31;;;16.05;79.13
3844;BME280;1937;51.444;6.484;2023-03-13T10:22:53;69496.78;;;16.18;79.45
3844;BME280;1937;51.444;6.484;2023-03-13T10:25:30;69465.50;;;16.31;78.65
3844;BME280;1937;51.444;6.484;2023-03-13T10:27:59;69429.94;;;16.29;77.85
3844;BME280;1937;51.444;6.484;2023-03-13T10:30:30;69645.59;;;17.11;77.45
3844;BME280;1937;51.444;6.484;2023-03-13T10:33:13;69626.69;;;17.24;75.82
3844;BME280;1937;51.444;6.484;2023-03-13T10:35:46;69601.91;;;17.18;75.52
3844;BME280;1937;51.444;6.484;2023-03-13T10:38:26;69453.81;;;16.67;77.62
3844;BME280;1937;51.444;6.484;2023-03-13T10:40:58;69457.38;;;16.46;76.07
3844;BME280;1937;51.444;6.484;2023-03-13T10:43:29;69381.34;;;16.52;75.95
3844;BME280;1937;51.444;6.484;2023-03-13T10:45:58;69273.31;;;16.35;76.69
3844;BME280;1937;51.444;6.484;2023-03-13T10:48:35;69273.00;;;16.26;76.07
3844;BME280;1937;51.444;6.484;2023-03-13T10:51:19;69341.63;;;16.23;76.75
3844;BME280;1937;51.444;6.484;2023-03-13T10:53:50;69319.06;;;16.39;77.54
3844;BME280;1937;51.444;6.484;2023-03-13T10:56:26;69368.31;;;16.34;76.45
3844;BME280;1937;51.444;6.484;2023-03-13T10:58:57;69312.38;;;16.29;76.77
3844;BME280;1937;51.444;6.484;2023-03-13T11:01:28;69273.25;;;16.42;77.62
3844;BME280;1937;51.444;6.484;2023-03-13T11:03:58;69345.88;;;16.55;75.93
3844;BME280;1937;51.444;6.484;2023-03-13T11:06:52;69302.72;;;16.52;76.27
3844;BME280;1937;51.444;6.484;2023-03-13T11:09:25;69349.06;;;16.80;76.01
3844;BME280;1937;51.444;6.484;2023-03-13T11:11:55;69472.41;;;17.12;75.20
3844;BME280;1937;51.444;6.484;2023-03-13T11:14:28;69346.31;;;16.75;74.60
3844;BME280;1937;51.444;6.484;2023-03-13T11:17:02;69393.00;;;17.06;74.09
3844;BME280;1937;51.444;6.484;2023-03-13T11:19:50;69288.03;;;16.79;74.03
3844;BME280;1937;51.444;6.484;2023-03-13T11:22:29;69380.06;;;17.00;74.92
3844;BME280;1937;51.444;6.484;2023-03-13T11:25:03;69479.44;;;17.31;73.57
3844;BME280;1937;51.444;6.484;2023-03-13T11:27:45;69342.66;;;16.97;74.12
3844;BME280;1937;51.444;6.484;2023-03-13T11:30:27;69355.59;;;17.21;72.95
3844;BME280;1937;51.444;6.484;2023-03-13T11:33:03;69386.47;;;17.36;72.72
3844;BME280;1937;51.444;6.484;2023-03-13T11:35:42;69408.75;;;17.46;71.38
3844;BME280;1937;51.444;6.484;2023-03-13T11:38:20;69382.44;;;17.55;69.53
3844;BME280;1937;51.444;6.484;2023-03-13T11:40:55;69219.47;;;17.05;70.28
3844;BME280;1937;51.444;6.484;2023-03-13T11:43:39;69204.88;;;16.90;71.22
3844;BME280;1937;51.444;6.484;2023-03-13T11:46:24;69131.84;;;16.74;71.99
3844;BME280;1937;51.444;6.484;2023-03-13T11:52:07;69356.16;;;17.39;69.80
3844;BME280;1937;51.444;6.484;2023-03-13T11:54:46;69425.13;;;17.87;67.54
3844;BME280;1937;51.444;6.484;2023-03-13T11:57:23;69330.13;;;17.86;67.04
3844;BME280;1937;51.444;6.484;2023-03-13T12:00:06;69238.56;;;17.43;67.93
3844;BME280;1937;51.444;6.484;2023-03-13T12:02:46;69090.44;;;17.01;69.54
3844;BME280;1937;51.444;6.484;2023-03-13T12:05:20;69193.78;;;17.25;69.36
3844;BME280;1937;51.444;6.484;2023-03-13T12:07:52;69197.31;;;17.28;69.43
3844;BME280;1937;51.444;6.484;2023-03-13T12:10:25;69211.53;;;17.29;68.99
3844;BME280;1937;51.444;6.484;2023-03-13T12:13:00;69225.44;;;17.21;68.22
3844;BME280;1937;51.444;6.484;2023-03-13T12:15:33;69153.75;;;17.22;68.04
3844;BME280;1937;51.444;6.484;2023-03-13T12:18:11;69182.56;;;17.09;68.51
3844;BME280;1937;51.444;6.484;2023-03-13T12:20:46;69238.22;;;17.52;66.52
3844;BME280;1937;51.444;6.484;2023-03-13T12:23:25;69259.06;;;17.81;66.74
3844;BME280;1937;51.444;6.484;2023-03-13T12:26:01;69149.69;;;17.52;64.83
3844;BME280;1937;51.444;6.484;2023-03-13T12:28:34;69119.72;;;17.46;64.93
3844;BME280;1937;51.444;6.484;2023-03-13T12:31:11;69144.78;;;17.32;64.69
3844;BME280;1937;51.444;6.484;2023-03-13T12:33:44;68979.97;;;16.89;66.34
3844;BME280;1937;51.444;6.484;2023-03-13T12:36:20;69051.31;;;17.19;66.41
3844;BME280;1937;51.444;6.484;2023-03-13T12:38:56;69074.88;;;17.35;66.83
3844;BME280;1937;51.444;6.484;2023-03-13T12:41:32;69077.34;;;17.19;66.58
3844;BME280;1937;51.444;6.484;2023-03-13T12:44:10;69081.16;;;17.42;65.94
3844;BME280;1937;51.444;6.484;2023-03-13T12:46:45;69078.53;;;17.31;66.02
3844;BME280;1937;51.444;6.484;2023-03-13T12:49:53;69092.03;;;17.38;66.67
3844;BME280;1937;51.444;6.484;2023-03-13T12:52:45;69184.91;;;17.80;65.29
3844;BME280;1937;51.444;6.484;2023-03-13T12:55:40;69259.28;;;18.19;63.79
3844;BME280;1937;51.444;6.484;2023-03-13T12:58:22;69330.00;;;18.21;63.94
3844;BME280;1937;51.444;6.484;2023-03-13T13:00:54;69183.44;;;17.58;64.38
3844;BME280;1937;51.444;6.484;2023-03-13T13:03:31;69075.25;;;17.37;64.94
3844;BME280;1937;51.444;6.484;2023-03-13T13:06:06;69146.06;;;17.67;65.70
3844;BME280;1937;51.444;6.484;2023-03-13T13:08:36;69091.56;;;17.53;65.78
3844;BME280;1937;51.444;6.484;2023-03-13T13:17:23;69137.69;;;17.88;64.78
3844;BME280;1937;51.444;6.484;2023-03-13T13:19:57;69171.69;;;17.93;63.75
3844;BME280;1937;51.444;6.484;2023-03-13T13:22:48;69169.06;;;18.04;62.47
3844;BME280;1937;51.444;6.484;2023-03-13T13:25:31;69204.88;;;18.21;63.28
3844;BME280;1937;51.444;6.484;2023-03-13T13:28:24;69091.97;;;18.00;62.20
3844;BME280;1937;51.444;6.484;2023-03-13T13:30:56;69125.13;;;17.95;61.60
3844;BME280;1937;51.444;6.484;2023-03-13T13:33:42;69068.75;;;17.98;61.62
3844;BME280;1937;51.444;6.484;2023-03-13T13:36:41;69047.78;;;17.83;62.05
3844;BME280;1937;51.444;6.484;2023-03-13T13:39:35;69142.19;;;18.06;63.96
3844;BME280;1937;51.444;6.484;2023-03-13T13:45:30;68971.06;;;17.59;63.90
3844;BME280;1937;51.444;6.484;2023-03-13T13:48:26;68997.94;;;17.47;65.91
3844;BME280;1937;51.444;6.484;2023-03-13T13:58:10;69104.25;;;17.73;65.75
3844;BME280;1937;51.444;6.484;2023-03-13T14:00:41;69071.72;;;17.90;65.01
3844;BME280;1937;51.444;6.484;2023-03-13T14:03:26;69126.63;;;17.54;66.14